Página principal
METAR-TAF:

METAR-TAF

Aeroportos :

Nikolai, Alasca, Estados Unidos

latitude: 63-01-07N, longitude: 154-21-30W, altura: 134 m

Observação actual do tempo

O boletim foi feito há 54 minutos, às 05:01 UTC
Vento 7 kt de noroeste
Temperatura 19°C
Humidade 64%
Pressão 1008 hPa
Visibilidade: 16.1 km
Céu limpo

METAR: PAFS 230501Z AUTO 31007KT 10SM CLR 19/12 A2978 RMK AO2 SLP087 T01940117

Hora: 21:55 (05:55 UTC)


TAF: em falta

Observações e previsões do tempo de mais de 4000 aeroportos (mensagens METAR e TAF).

As estações disponíveis são os pontos amarelos e vermelhos sobre o mapa.

Mova o rato sobre o mapa para ver o nome da estação.

Depois clique no ponto para visualizar as observações e previsões meteorológicas.

Para alterar o mapa : clique nos botões verdes com uma cruz preta para aumentar o zoom; no botão verde com uma pitada de zoom; ou nas setas verdes para mapas adjacentes.


METAR-TAF: